Time;durP1;ratioP1;P1;durP2;ratioP2;P2;SDS_P1;SDS_P2;PMS_P1;PMS_P2;Temp;Humidity;BMP_temperature;BMP_pressure;BME280_temperature;BME280_humidity;BME280_pressure;Samples;Min_cycle;Max_cycle;Signal;HPM_P1;HPM_P2
2022/11/03 00:01:04;;;;;;;;;;;10.20;99.90;;;;;;5066872;28;19917;-77
2022/11/03 00:03:29;;;;;;;;;;;10.20;99.90;;;;;;5067757;28;19916;-77
2022/11/03 00:06:04;;;;;;;;;;;10.30;99.90;;;;;;5066360;28;19921;-77
2022/11/03 00:08:30;;;;;;;;;;;10.50;99.90;;;;;;5068048;28;19917;-77
2022/11/03 00:11:02;;;;;;;;;;;10.40;99.90;;;;;;5062851;28;19916;-77
2022/11/03 00:13:27;;;;;;;;;;;10.30;99.90;;;;;;5068856;28;19947;-77
2022/11/03 00:15:53;;;;;;;;;;;10.20;99.90;;;;;;5066802;28;19912;-77
2022/11/03 00:18:18;;;;;;;;;;;10.20;99.90;;;;;;5068488;28;19927;-77
2022/11/03 00:20:44;;;;;;;;;;;10.10;99.90;;;;;;5067464;28;19956;-76
2022/11/03 00:23:09;;;;;;;;;;;10.10;99.90;;;;;;5067838;28;20007;-77
2022/11/03 00:25:35;;;;;;;;;;;10.20;99.90;;;;;;5055002;28;19920;-77
2022/11/03 00:28:00;;;;;;;;;;;10.20;99.90;;;;;;5068101;28;19916;-77
2022/11/03 00:30:26;;;;;;;;;;;10.20;99.90;;;;;;5067720;28;19943;-77
2022/11/03 00:32:51;;;;;;;;;;;10.10;99.90;;;;;;5067882;28;20567;-77
2022/11/03 00:35:17;;;;;;;;;;;10.30;99.90;;;;;;5070978;28;19935;-77
2022/11/03 00:37:42;;;;;;;;;;;10.30;99.90;;;;;;5067332;28;19926;-76
2022/11/03 00:40:09;;;;;;;;;;;10.50;99.90;;;;;;5067635;28;20104;-77
2022/11/03 00:42:36;;;;;;;;;;;10.50;99.90;;;;;;5066556;28;19962;-77
2022/11/03 00:45:01;;;;;;;;;;;10.50;99.90;;;;;;5064176;28;20461;-77
2022/11/03 00:47:27;;;;;;;;;;;10.40;99.90;;;;;;5068285;28;20057;-77
2022/11/03 00:49:52;;;;;;;;;;;10.40;99.90;;;;;;5066496;28;19923;-77
2022/11/03 00:52:18;;;;;;;;;;;10.20;99.90;;;;;;5057607;28;19955;-77
2022/11/03 00:54:43;;;;;;;;;;;10.10;99.90;;;;;;5060513;28;19997;-78
2022/11/03 00:57:09;;;;;;;;;;;10.10;99.90;;;;;;5059063;28;19979;-77
2022/11/03 00:59:34;;;;;;;;;;;10.20;99.90;;;;;;5065571;28;19923;-77
2022/11/03 01:02:00;;;;;;;;;;;10.10;99.90;;;;;;5065339;28;19916;-78
2022/11/03 01:07:11;;;;;;;;;;;10.10;99.90;;;;;;5065992;28;20359;-77
2022/11/03 01:09:39;;;;;;;;;;;10.10;99.90;;;;;;5064764;28;19919;-77
2022/11/03 01:12:04;;;;;;;;;;;10.30;99.90;;;;;;5065745;28;19916;-77
2022/11/03 01:14:53;;;;;;;;;;;10.30;99.90;;;;;;5065715;28;19931;-78
2022/11/03 01:17:19;;;;;;;;;;;10.30;99.90;;;;;;5055878;28;19920;-78
2022/11/03 01:19:44;;;;;;;;;;;10.40;99.90;;;;;;5068000;28;20699;-78
2022/11/03 01:22:10;;;;;;;;;;;10.60;99.90;;;;;;5066688;28;20295;-78
2022/11/03 01:24:36;;;;;;;;;;;10.50;99.90;;;;;;5068195;28;19962;-78
2022/11/03 01:27:02;;;;;;;;;;;10.50;99.90;;;;;;5067295;28;19963;-78
2022/11/03 01:29:27;;;;;;;;;;;10.50;99.90;;;;;;5066604;28;20549;-77
2022/11/03 01:31:53;;;;;;;;;;;10.60;99.90;;;;;;5067825;28;19916;-76
2022/11/03 01:34:19;;;;;;;;;;;10.50;99.90;;;;;;5069688;28;19920;-75
2022/11/03 01:36:45;;;;;;;;;;;10.50;99.90;;;;;;5066215;28;19995;-76
2022/11/03 01:39:12;;;;;;;;;;;10.30;99.90;;;;;;5065879;28;19921;-77
2022/11/03 01:41:38;;;;;;;;;;;10.30;99.90;;;;;;5060714;28;19923;-76
2022/11/03 01:44:23;;;;;;;;;;;10.30;99.90;;;;;;5056252;28;19924;-77
2022/11/03 01:46:53;;;;;;;;;;;10.30;99.90;;;;;;5065185;28;20320;-77
2022/11/03 01:49:24;;;;;;;;;;;10.20;99.90;;;;;;5066269;28;19923;-78
2022/11/03 01:51:53;;;;;;;;;;;10.10;99.90;;;;;;5065478;28;19916;-78
2022/11/03 01:54:20;;;;;;;;;;;10.00;99.90;;;;;;5066079;28;19924;-77
2022/11/03 01:56:46;;;;;;;;;;;10.00;99.90;;;;;;5071458;28;20226;-78
2022/11/03 01:59:13;;;;;;;;;;;10.00;99.90;;;;;;5065819;28;20824;-77
2022/11/03 02:01:39;;;;;;;;;;;10.00;99.90;;;;;;5066030;28;20031;-77
2022/11/03 02:04:12;;;;;;;;;;;10.00;99.90;;;;;;5067522;28;20042;-78
2022/11/03 02:06:38;;;;;;;;;;;10.00;99.90;;;;;;5066937;28;20390;-78
2022/11/03 02:09:05;;;;;;;;;;;10.20;99.90;;;;;;5072322;28;19923;-77
2022/11/03 02:14:15;;;;;;;;;;;10.10;99.90;;;;;;5071130;28;19969;-77
2022/11/03 02:16:53;;;;;;;;;;;9.90;99.90;;;;;;5069269;28;19916;-76
2022/11/03 02:19:24;;;;;;;;;;;10.00;99.90;;;;;;5070056;28;20364;-76
2022/11/03 02:22:08;;;;;;;;;;;10.00;99.90;;;;;;5070275;28;20011;-77
2022/11/03 02:24:57;;;;;;;;;;;10.10;99.90;;;;;;5070354;28;20370;-76
2022/11/03 02:27:22;;;;;;;;;;;10.10;99.90;;;;;;5069767;28;19916;-77
2022/11/03 02:29:48;;;;;;;;;;;10.00;99.90;;;;;;5070330;28;20114;-78
2022/11/03 02:32:17;;;;;;;;;;;10.00;99.90;;;;;;5069700;28;20690;-77
2022/11/03 02:34:45;;;;;;;;;;;10.00;99.90;;;;;;5069008;28;19916;-77
2022/11/03 02:37:19;;;;;;;;;;;9.90;99.90;;;;;;5068750;28;19951;-76
2022/11/03 02:40:03;;;;;;;;;;;9.90;99.90;;;;;;5070156;28;19916;-77
2022/11/03 02:42:29;;;;;;;;;;;9.90;99.90;;;;;;5069258;28;19917;-77
2022/11/03 02:44:56;;;;;;;;;;;9.90;99.90;;;;;;5059737;28;19932;-77
2022/11/03 02:47:22;;;;;;;;;;;10.00;99.90;;;;;;5065035;28;19969;-77
2022/11/03 02:49:49;;;;;;;;;;;10.20;99.90;;;;;;5069680;28;20823;-77
2022/11/03 02:52:30;;;;;;;;;;;10.20;99.90;;;;;;5069483;28;19916;-76
2022/11/03 02:54:56;;;;;;;;;;;10.00;99.90;;;;;;5069239;28;19916;-77
2022/11/03 02:57:26;;;;;;;;;;;10.00;99.90;;;;;;5069415;28;19916;-77
2022/11/03 02:59:54;;;;;;;;;;;10.10;99.90;;;;;;5069887;28;19923;-76
2022/11/03 03:02:22;;;;;;;;;;;10.30;99.90;;;;;;5066742;28;19927;-76
2022/11/03 03:04:55;;;;;;;;;;;10.20;99.90;;;;;;5068076;28;20249;-77
2022/11/03 03:07:23;;;;;;;;;;;10.20;99.90;;;;;;5068517;28;19916;-77
2022/11/03 03:10:09;;;;;;;;;;;10.10;99.90;;;;;;5060857;28;19922;-77
2022/11/03 03:12:36;;;;;;;;;;;10.00;99.90;;;;;;5068346;28;19924;-77
2022/11/03 03:15:03;;;;;;;;;;;9.90;99.90;;;;;;5067430;28;20552;-77
2022/11/03 03:17:43;;;;;;;;;;;9.90;99.90;;;;;;5068871;28;20168;-76
2022/11/03 03:20:42;;;;;;;;;;;9.80;99.90;;;;;;5069309;28;19920;-76
2022/11/03 03:23:21;;;;;;;;;;;9.70;99.90;;;;;;5056314;28;19916;-76
2022/11/03 03:25:53;;;;;;;;;;;9.70;99.90;;;;;;5065932;28;20498;-75
2022/11/03 03:28:23;;;;;;;;;;;9.80;99.90;;;;;;5069097;28;20053;-76
2022/11/03 03:30:50;;;;;;;;;;;9.80;99.90;;;;;;5066190;28;20427;-76
2022/11/03 03:33:16;;;;;;;;;;;9.80;99.90;;;;;;5067775;28;19923;-76
2022/11/03 03:35:43;;;;;;;;;;;9.80;99.90;;;;;;5065006;28;19985;-76
2022/11/03 03:38:14;;;;;;;;;;;9.80;99.90;;;;;;5071146;28;20030;-76
2022/11/03 03:40:40;;;;;;;;;;;9.90;99.90;;;;;;5068146;28;19969;-76
2022/11/03 03:43:07;;;;;;;;;;;10.00;99.90;;;;;;5068459;28;20030;-77
2022/11/03 03:45:33;;;;;;;;;;;10.10;99.90;;;;;;5065416;28;19920;-76
2022/11/03 03:47:59;;;;;;;;;;;10.10;99.90;;;;;;5065531;28;19927;-75
2022/11/03 03:50:26;;;;;;;;;;;10.20;99.90;;;;;;5067402;28;20466;-76
2022/11/03 03:53:01;;;;;;;;;;;10.30;99.90;;;;;;5068171;28;19916;-76
2022/11/03 03:55:35;;;;;;;;;;;10.50;99.90;;;;;;5067467;28;19917;-75
2022/11/03 03:58:01;;;;;;;;;;;10.70;99.90;;;;;;5067311;28;19952;-76
2022/11/03 04:00:26;;;;;;;;;;;10.90;99.90;;;;;;5066622;28;20035;-76
2022/11/03 04:02:55;;;;;;;;;;;10.60;99.90;;;;;;5060606;28;19964;-75
2022/11/03 04:05:20;;;;;;;;;;;10.50;99.90;;;;;;5066826;28;19924;-77
2022/11/03 04:07:46;;;;;;;;;;;10.60;99.90;;;;;;5065625;28;19913;-77
2022/11/03 04:10:11;;;;;;;;;;;10.60;99.90;;;;;;5066401;28;19917;-77
2022/11/03 04:23:36;;;;;;;;;;;10.00;99.90;;;;;;5064439;28;20433;-76
2022/11/03 04:26:03;;;;;;;;;;;10.00;99.90;;;;;;5068039;28;19924;-76
2022/11/03 04:28:29;;;;;;;;;;;10.00;99.90;;;;;;5068443;28;20654;-76
2022/11/03 04:30:56;;;;;;;;;;;10.00;99.90;;;;;;5067365;28;20014;-77
2022/11/03 04:33:21;;;;;;;;;;;10.00;99.90;;;;;;5067923;28;19920;-77
2022/11/03 04:35:47;;;;;;;;;;;10.10;99.90;;;;;;5067930;28;19938;-76
2022/11/03 04:38:13;;;;;;;;;;;10.40;99.90;;;;;;5066929;28;19916;-76
2022/11/03 04:40:44;;;;;;;;;;;10.70;99.90;;;;;;5064177;28;20459;-76
2022/11/03 04:43:14;;;;;;;;;;;10.60;99.90;;;;;;5064633;28;19931;-75
2022/11/03 04:45:42;;;;;;;;;;;10.40;99.90;;;;;;5068500;28;19931;-77
2022/11/03 04:48:11;;;;;;;;;;;10.50;99.90;;;;;;5068239;28;19970;-76
2022/11/03 04:50:38;;;;;;;;;;;10.70;99.90;;;;;;5067111;28;19985;-77
2022/11/03 04:53:08;;;;;;;;;;;11.10;99.90;;;;;;5066511;28;19917;-77
2022/11/03 04:55:33;;;;;;;;;;;11.50;99.90;;;;;;5067670;28;20386;-77
2022/11/03 04:58:06;;;;;;;;;;;11.60;99.90;;;;;;5066105;28;19920;-76
2022/11/03 05:00:31;;;;;;;;;;;11.70;99.90;;;;;;5067038;28;19923;-76
2022/11/03 05:02:57;;;;;;;;;;;11.80;99.90;;;;;;5063721;28;20015;-76
2022/11/03 05:05:24;;;;;;;;;;;11.90;99.90;;;;;;5067234;28;20044;-76
2022/11/03 05:07:53;;;;;;;;;;;11.90;99.90;;;;;;5066149;28;20552;-76
2022/11/03 05:10:20;;;;;;;;;;;11.90;99.90;;;;;;5072015;28;20015;-76
2022/11/03 05:12:46;;;;;;;;;;;11.70;99.90;;;;;;5065297;28;19913;-76
2022/11/03 05:15:24;;;;;;;;;;;11.70;99.90;;;;;;5067637;28;19917;-76
2022/11/03 05:17:49;;;;;;;;;;;11.70;99.90;;;;;;5064513;28;20292;-76
2022/11/03 05:20:30;;;;;;;;;;;11.70;99.90;;;;;;5068163;28;19922;-76
2022/11/03 05:22:56;;;;;;;;;;;11.90;99.90;;;;;;5066912;28;19920;-76
2022/11/03 05:25:33;;;;;;;;;;;11.80;99.90;;;;;;5067727;28;19970;-76
2022/11/03 05:27:58;;;;;;;;;;;12.00;99.90;;;;;;5065552;28;19956;-76
2022/11/03 05:30:24;;;;;;;;;;;11.80;99.90;;;;;;5067888;28;19944;-75
2022/11/03 05:32:49;;;;;;;;;;;12.00;99.90;;;;;;5065300;28;19989;-76
2022/11/03 05:35:21;;;;;;;;;;;11.90;99.90;;;;;;5063547;28;19963;-74
2022/11/03 05:37:46;;;;;;;;;;;11.80;99.90;;;;;;5065622;28;20014;-75
2022/11/03 05:40:25;;;;;;;;;;;11.90;99.90;;;;;;5066876;28;20003;-76
2022/11/03 05:42:55;;;;;;;;;;;12.00;99.90;;;;;;5070864;28;19936;-76
2022/11/03 05:45:34;;;;;;;;;;;11.90;99.90;;;;;;5064197;28;19967;-78
2022/11/03 05:48:00;;;;;;;;;;;12.00;99.90;;;;;;5070826;28;19970;-79
2022/11/03 05:50:27;;;;;;;;;;;11.90;99.90;;;;;;5070747;28;19947;-80
2022/11/03 05:52:58;;;;;;;;;;;11.90;99.90;;;;;;5071435;28;19923;-78
2022/11/03 05:55:29;;;;;;;;;;;11.90;99.90;;;;;;5071612;28;19924;-78
2022/11/03 05:57:56;;;;;;;;;;;11.90;99.90;;;;;;5069957;28;19920;-78
2022/11/03 06:00:26;;;;;;;;;;;11.90;99.90;;;;;;5066044;28;19990;-78
2022/11/03 06:02:54;;;;;;;;;;;12.10;99.90;;;;;;5068858;28;19916;-77
2022/11/03 06:05:20;;;;;;;;;;;12.20;99.90;;;;;;5069629;28;19928;-80
2022/11/03 06:07:46;;;;;;;;;;;12.30;99.90;;;;;;5068475;28;19923;-79
2022/11/03 06:10:20;;;;;;;;;;;12.50;99.90;;;;;;5068698;28;19920;-79
2022/11/03 06:12:45;;;;;;;;;;;12.60;99.90;;;;;;5069392;28;19917;-81
2022/11/03 06:15:20;;;;;;;;;;;12.60;99.90;;;;;;5069337;28;19968;-85
2022/11/03 06:17:46;;;;;;;;;;;12.60;99.90;;;;;;5070984;28;19919;-79
2022/11/03 06:20:16;;;;;;;;;;;12.70;99.90;;;;;;5064423;28;19916;-81
2022/11/03 06:22:43;;;;;;;;;;;12.70;99.90;;;;;;5069111;28;19923;-80
2022/11/03 06:25:08;;;;;;;;;;;12.70;99.90;;;;;;5069465;28;19928;-78
2022/11/03 06:27:34;;;;;;;;;;;12.80;99.90;;;;;;5070616;28;19916;-79
2022/11/03 06:30:02;;;;;;;;;;;13.00;99.90;;;;;;5062226;28;19916;-79
2022/11/03 06:32:28;;;;;;;;;;;12.90;99.90;;;;;;5068339;28;20018;-77
2022/11/03 06:34:57;;;;;;;;;;;12.90;99.90;;;;;;5073185;28;20387;-78
2022/11/03 06:37:30;;;;;;;;;;;12.90;99.90;;;;;;5069075;28;20003;-78
2022/11/03 06:40:00;;;;;;;;;;;12.90;99.90;;;;;;5073931;28;19965;-77
2022/11/03 06:42:28;;;;;;;;;;;13.00;99.90;;;;;;5069348;28;19959;-79
2022/11/03 06:44:53;;;;;;;;;;;13.00;99.90;;;;;;5068152;28;19927;-78
2022/11/03 06:47:20;;;;;;;;;;;13.00;99.90;;;;;;5068380;28;19920;-79
2022/11/03 06:49:46;;;;;;;;;;;13.00;99.90;;;;;;5067122;28;19916;-78
2022/11/03 06:52:30;;;;;;;;;;;13.00;99.90;;;;;;5056284;28;20459;-78
2022/11/03 06:55:12;;;;;;;;;;;13.00;99.90;;;;;;5059474;28;19916;-78
2022/11/03 06:57:38;;;;;;;;;;;13.10;99.90;;;;;;5067182;28;19912;-79
2022/11/03 07:00:13;;;;;;;;;;;13.10;99.90;;;;;;5051748;28;19951;-78
2022/11/03 07:02:51;;;;;;;;;;;13.20;99.90;;;;;;5087189;28;19917;-79
2022/11/03 07:05:35;;;;;;;;;;;13.10;99.90;;;;;;5070312;28;19960;-79
2022/11/03 07:08:12;;;;;;;;;;;13.20;99.90;;;;;;5053752;28;19916;-79
2022/11/03 07:10:37;;;;;;;;;;;13.30;99.90;;;;;;5084277;28;19913;-78
2022/11/03 07:13:11;;;;;;;;;;;13.20;99.90;;;;;;5054104;28;19912;-78
2022/11/03 07:15:38;;;;;;;;;;;13.40;99.90;;;;;;5058814;28;19919;-78
2022/11/03 07:18:12;;;;;;;;;;;13.40;99.90;;;;;;5063858;28;20003;-78
2022/11/03 07:20:38;;;;;;;;;;;13.30;99.90;;;;;;5067773;28;19920;-77
2022/11/03 07:23:04;;;;;;;;;;;13.30;99.90;;;;;;5056819;28;20344;-77
2022/11/03 07:25:30;;;;;;;;;;;13.30;99.90;;;;;;5068043;28;19920;-76
2022/11/03 07:27:56;;;;;;;;;;;13.40;99.90;;;;;;5064517;28;19920;-78
2022/11/03 07:30:22;;;;;;;;;;;13.50;99.90;;;;;;5075150;28;20442;-79
2022/11/03 07:32:51;;;;;;;;;;;13.50;99.90;;;;;;5065087;28;20350;-85
2022/11/03 07:35:17;;;;;;;;;;;13.40;99.90;;;;;;5048676;28;19927;-83
2022/11/03 07:37:43;;;;;;;;;;;13.40;99.90;;;;;;5060406;28;19984;-86
2022/11/03 07:40:24;;;;;;;;;;;13.40;99.90;;;;;;5052224;28;20677;-79
2022/11/03 07:42:50;;;;;;;;;;;13.60;99.90;;;;;;5056975;28;20493;-78
2022/11/03 07:45:36;;;;;;;;;;;13.60;99.90;;;;;;5057266;28;19921;-79
2022/11/03 07:48:18;;;;;;;;;;;13.70;99.90;;;;;;5065505;28;20105;-79
2022/11/03 07:50:44;;;;;;;;;;;13.70;99.90;;;;;;5061972;28;19920;-78
2022/11/03 07:53:17;;;;;;;;;;;13.60;99.90;;;;;;5054279;28;19924;-79
2022/11/03 07:55:46;;;;;;;;;;;13.60;99.90;;;;;;5051456;28;20499;-79
2022/11/03 07:58:23;;;;;;;;;;;13.80;99.90;;;;;;5056461;28;19912;-80
2022/11/03 08:00:52;;;;;;;;;;;13.70;99.90;;;;;;5055558;28;20007;-80
2022/11/03 08:03:26;;;;;;;;;;;13.80;99.90;;;;;;5055496;28;20470;-81
2022/11/03 08:05:51;;;;;;;;;;;13.80;99.90;;;;;;5056549;28;19917;-80
2022/11/03 08:08:17;;;;;;;;;;;13.70;99.90;;;;;;5058143;28;19912;-78
2022/11/03 08:10:42;;;;;;;;;;;13.80;99.90;;;;;;5067439;28;19987;-79
2022/11/03 08:13:08;;;;;;;;;;;13.70;99.90;;;;;;5059210;28;19952;-80
2022/11/03 08:15:33;;;;;;;;;;;13.70;99.90;;;;;;5064142;28;19935;-82
2022/11/03 08:17:59;;;;;;;;;;;13.80;99.90;;;;;;5083388;28;19955;-81
2022/11/03 08:20:24;;;;;;;;;;;13.70;99.90;;;;;;5059976;28;20386;-80
2022/11/03 08:22:50;;;;;;;;;;;13.80;99.90;;;;;;5068686;28;19912;-80
2022/11/03 08:25:15;;;;;;;;;;;13.70;99.90;;;;;;5058293;28;19917;-79
2022/11/03 08:27:41;;;;;;;;;;;13.90;99.90;;;;;;5062952;28;19913;-80
2022/11/03 08:30:08;;;;;;;;;;;14.00;99.90;;;;;;5068388;28;19917;-81
2022/11/03 08:32:34;;;;;;;;;;;14.00;99.90;;;;;;5055827;28;20015;-80
2022/11/03 08:34:59;;;;;;;;;;;14.10;99.90;;;;;;5068232;28;20103;-81
2022/11/03 08:37:25;;;;;;;;;;;14.20;99.90;;;;;;5063104;28;20380;-81
2022/11/03 08:39:50;;;;;;;;;;;14.20;99.90;;;;;;5063138;28;20396;-80
2022/11/03 08:42:16;;;;;;;;;;;14.20;99.90;;;;;;5063206;28;20380;-81
2022/11/03 08:44:41;;;;;;;;;;;14.20;99.90;;;;;;5064112;28;20404;-80
2022/11/03 08:47:07;;;;;;;;;;;14.40;99.90;;;;;;5064071;28;19915;-81
2022/11/03 08:49:33;;;;;;;;;;;14.40;99.90;;;;;;5063278;28;19912;-80
2022/11/03 08:51:59;;;;;;;;;;;14.50;99.90;;;;;;5064358;28;20047;-80
2022/11/03 08:54:25;;;;;;;;;;;14.40;99.90;;;;;;5062333;28;19966;-80
2022/11/03 08:56:50;;;;;;;;;;;14.40;99.90;;;;;;5065034;28;19919;-80
2022/11/03 08:59:17;;;;;;;;;;;14.50;99.90;;;;;;5067620;28;20451;-79
2022/11/03 09:01:43;;;;;;;;;;;14.50;99.90;;;;;;5064785;28;19913;-80
2022/11/03 09:04:09;;;;;;;;;;;14.50;99.90;;;;;;5067997;28;19924;-79
2022/11/03 09:06:34;;;;;;;;;;;14.50;99.90;;;;;;5067822;28;19920;-80
2022/11/03 09:09:00;;;;;;;;;;;14.70;99.90;;;;;;5067955;28;19912;-80
2022/11/03 09:11:25;;;;;;;;;;;14.60;99.90;;;;;;5067714;28;19916;-79
2022/11/03 09:13:51;;;;;;;;;;;14.70;99.90;;;;;;5067703;28;20455;-80
2022/11/03 09:16:16;;;;;;;;;;;14.70;99.90;;;;;;5067453;28;20306;-80
2022/11/03 09:18:42;;;;;;;;;;;14.70;99.90;;;;;;5066368;28;19956;-80
2022/11/03 09:21:07;;;;;;;;;;;14.60;99.90;;;;;;5068064;28;19912;-80
2022/11/03 09:23:33;;;;;;;;;;;14.60;99.90;;;;;;5067569;28;20434;-80
2022/11/03 09:25:58;;;;;;;;;;;14.60;99.90;;;;;;5067406;28;19921;-81
2022/11/03 09:28:24;;;;;;;;;;;14.50;99.90;;;;;;5066217;28;19920;-81
2022/11/03 09:30:49;;;;;;;;;;;14.50;99.90;;;;;;5066271;28;20599;-80
2022/11/03 09:33:15;;;;;;;;;;;14.50;99.90;;;;;;5066064;28;20421;-80
2022/11/03 09:35:40;;;;;;;;;;;14.60;99.90;;;;;;5067706;28;20476;-80
2022/11/03 09:38:06;;;;;;;;;;;14.50;99.90;;;;;;5060162;28;19958;-81
2022/11/03 09:40:33;;;;;;;;;;;14.50;99.90;;;;;;5067051;28;19952;-80
2022/11/03 09:42:59;;;;;;;;;;;14.60;99.90;;;;;;5067064;28;19916;-80
2022/11/03 09:45:24;;;;;;;;;;;14.70;99.90;;;;;;5067418;28;20599;-80
2022/11/03 09:47:50;;;;;;;;;;;14.70;99.90;;;;;;5065732;28;19917;-81
2022/11/03 09:50:16;;;;;;;;;;;14.70;99.90;;;;;;5067362;28;20466;-80
2022/11/03 09:52:42;;;;;;;;;;;14.80;99.90;;;;;;5067427;28;19917;-80
2022/11/03 09:55:12;;;;;;;;;;;14.80;99.90;;;;;;5067867;28;19919;-80
2022/11/03 09:57:37;;;;;;;;;;;14.70;99.90;;;;;;5066858;28;19917;-79
2022/11/03 10:00:03;;;;;;;;;;;14.70;99.90;;;;;;5067497;28;19981;-79
2022/11/03 10:02:29;;;;;;;;;;;14.60;99.90;;;;;;5060457;28;19923;-79
2022/11/03 10:04:56;;;;;;;;;;;14.50;99.90;;;;;;5055810;28;19978;-80
2022/11/03 10:07:22;;;;;;;;;;;14.40;99.90;;;;;;5062510;28;19912;-80
2022/11/03 10:09:49;;;;;;;;;;;14.50;99.90;;;;;;5066950;28;19912;-80
2022/11/03 10:12:15;;;;;;;;;;;14.50;99.90;;;;;;5066495;28;19959;-80
2022/11/03 10:14:41;;;;;;;;;;;14.50;99.90;;;;;;5066301;28;20445;-81
2022/11/03 10:17:08;;;;;;;;;;;14.50;99.90;;;;;;5061443;28;19913;-82
2022/11/03 10:19:33;;;;;;;;;;;14.60;99.90;;;;;;5067423;28;19916;-80
2022/11/03 10:21:59;;;;;;;;;;;14.70;99.90;;;;;;5066046;28;19917;-81
2022/11/03 10:24:24;;;;;;;;;;;14.70;99.90;;;;;;5065225;28;19987;-80
2022/11/03 10:26:51;;;;;;;;;;;14.80;99.90;;;;;;5065527;28;19913;-81
2022/11/03 10:29:20;;;;;;;;;;;14.70;99.90;;;;;;5055020;28;19919;-78
2022/11/03 10:31:48;;;;;;;;;;;14.70;99.90;;;;;;5058811;28;19912;-82
2022/11/03 10:34:24;;;;;;;;;;;14.80;99.90;;;;;;5054340;28;19924;-81
2022/11/03 10:37:06;;;;;;;;;;;14.70;99.90;;;;;;5060977;28;19980;-81
2022/11/03 10:39:32;;;;;;;;;;;14.70;99.90;;;;;;5060875;28;20007;-81
2022/11/03 10:41:58;;;;;;;;;;;14.70;99.90;;;;;;5061565;28;20028;-81
2022/11/03 10:44:27;;;;;;;;;;;14.70;99.90;;;;;;5061542;28;19916;-80
2022/11/03 10:46:57;;;;;;;;;;;14.60;99.90;;;;;;5069450;28;19979;-80
2022/11/03 10:49:23;;;;;;;;;;;14.70;99.90;;;;;;5070863;28;19912;-80
2022/11/03 10:51:53;;;;;;;;;;;14.70;99.90;;;;;;5069134;28;19920;-80
2022/11/03 10:54:20;;;;;;;;;;;14.90;99.90;;;;;;5070822;28;19917;-80
2022/11/03 10:56:46;;;;;;;;;;;14.90;99.90;;;;;;5065432;28;19913;-80
2022/11/03 10:59:16;;;;;;;;;;;14.90;99.90;;;;;;5064506;28;19913;-80
2022/11/03 11:01:41;;;;;;;;;;;14.80;99.90;;;;;;5069794;28;19913;-80
2022/11/03 11:04:07;;;;;;;;;;;14.80;99.90;;;;;;5094093;28;19924;-80
2022/11/03 11:06:33;;;;;;;;;;;14.80;99.90;;;;;;5061025;28;19964;-80
2022/11/03 11:08:59;;;;;;;;;;;14.90;99.90;;;;;;5057662;28;19916;-80
2022/11/03 11:11:25;;;;;;;;;;;14.90;99.90;;;;;;5069450;28;20253;-80
2022/11/03 11:14:10;;;;;;;;;;;14.90;99.90;;;;;;5069487;28;19917;-79
2022/11/03 11:16:51;;;;;;;;;;;14.90;99.90;;;;;;5062022;28;19939;-80
2022/11/03 11:19:16;;;;;;;;;;;14.80;99.90;;;;;;5068940;28;19913;-80
2022/11/03 11:21:42;;;;;;;;;;;14.80;99.90;;;;;;5069332;28;19939;-80
2022/11/03 11:24:10;;;;;;;;;;;14.80;99.90;;;;;;5068001;28;20281;-81
2022/11/03 11:26:36;;;;;;;;;;;14.70;99.90;;;;;;5068013;28;19966;-81
2022/11/03 11:29:08;;;;;;;;;;;14.70;99.90;;;;;;5069559;28;20674;-80
2022/11/03 11:31:34;;;;;;;;;;;14.80;99.90;;;;;;5069207;28;19923;-80
2022/11/03 11:34:09;;;;;;;;;;;14.90;99.90;;;;;;5069362;28;20023;-80
2022/11/03 11:36:38;;;;;;;;;;;15.10;99.90;;;;;;5066548;28;19912;-80
2022/11/03 11:39:09;;;;;;;;;;;15.10;99.90;;;;;;5069240;28;19919;-81
2022/11/03 11:41:53;;;;;;;;;;;15.00;99.90;;;;;;5068844;28;19912;-80
2022/11/03 11:44:38;;;;;;;;;;;15.00;99.90;;;;;;5064454;28;19912;-80
2022/11/03 11:47:17;;;;;;;;;;;15.00;99.90;;;;;;5067805;28;19966;-80
2022/11/03 11:49:43;;;;;;;;;;;15.00;99.90;;;;;;5069290;28;19919;-80
2022/11/03 11:52:08;;;;;;;;;;;15.00;99.90;;;;;;5068541;28;19939;-80
2022/11/03 11:54:34;;;;;;;;;;;14.90;99.90;;;;;;5068882;28;19913;-80
2022/11/03 11:56:59;;;;;;;;;;;14.90;99.90;;;;;;5068235;28;19916;-80
2022/11/03 11:59:25;;;;;;;;;;;14.90;99.90;;;;;;5067558;28;19917;-80
2022/11/03 12:01:52;;;;;;;;;;;14.90;99.90;;;;;;5068253;28;19912;-80
2022/11/03 12:04:27;;;;;;;;;;;14.80;99.90;;;;;;5068442;28;19930;-79
2022/11/03 12:06:54;;;;;;;;;;;14.90;99.90;;;;;;5057616;28;20023;-78
2022/11/03 12:09:21;;;;;;;;;;;15.00;99.90;;;;;;5059647;28;20027;-78
2022/11/03 12:11:51;;;;;;;;;;;14.90;99.90;;;;;;5068092;28;20011;-78
2022/11/03 12:14:29;;;;;;;;;;;14.80;99.90;;;;;;5067878;28;20019;-79
2022/11/03 12:16:55;;;;;;;;;;;14.80;99.90;;;;;;5068640;28;20731;-79
2022/11/03 12:19:40;;;;;;;;;;;14.80;99.90;;;;;;5068627;28;20013;-79
2022/11/03 12:22:10;;;;;;;;;;;14.90;99.90;;;;;;5057567;28;20335;-79
2022/11/03 12:24:49;;;;;;;;;;;14.80;99.90;;;;;;5068574;28;20327;-79
2022/11/03 12:27:17;;;;;;;;;;;14.80;99.90;;;;;;5068223;28;19913;-79
2022/11/03 12:29:42;;;;;;;;;;;14.90;99.90;;;;;;5069040;28;19916;-79
2022/11/03 12:32:08;;;;;;;;;;;14.90;99.90;;;;;;5068652;28;20366;-78
2022/11/03 12:34:33;;;;;;;;;;;14.80;99.90;;;;;;5068587;28;20291;-78
2022/11/03 12:36:59;;;;;;;;;;;14.80;99.90;;;;;;5064015;28;19917;-78
2022/11/03 12:39:24;;;;;;;;;;;14.80;99.90;;;;;;5068446;28;19982;-78
2022/11/03 12:41:50;;;;;;;;;;;14.80;99.90;;;;;;5067446;28;19919;-78
2022/11/03 12:44:16;;;;;;;;;;;14.80;99.90;;;;;;5068347;28;19924;-77
2022/11/03 12:46:41;;;;;;;;;;;14.60;99.90;;;;;;5068470;28;20295;-77
2022/11/03 12:49:07;;;;;;;;;;;14.60;99.90;;;;;;5061869;28;20315;-77
2022/11/03 12:51:32;;;;;;;;;;;14.60;99.90;;;;;;5066805;28;19940;-78
2022/11/03 12:53:58;;;;;;;;;;;14.50;99.90;;;;;;5068193;28;19922;-78
2022/11/03 12:56:24;;;;;;;;;;;14.60;99.90;;;;;;5067989;28;20031;-78
2022/11/03 12:58:49;;;;;;;;;;;14.60;99.90;;;;;;5068395;28;19917;-77
2022/11/03 13:01:15;;;;;;;;;;;14.60;99.90;;;;;;5068135;28;19912;-77
2022/11/03 13:03:42;;;;;;;;;;;14.50;99.90;;;;;;5068712;28;19916;-78
2022/11/03 13:06:09;;;;;;;;;;;14.40;99.90;;;;;;5067537;28;19972;-79
2022/11/03 13:08:35;;;;;;;;;;;14.20;99.90;;;;;;5060427;28;19921;-78
2022/11/03 13:11:00;;;;;;;;;;;14.30;99.90;;;;;;5067262;28;20511;-78
2022/11/03 13:13:26;;;;;;;;;;;14.40;99.90;;;;;;5065261;28;19952;-78
2022/11/03 13:15:52;;;;;;;;;;;14.40;99.90;;;;;;5067776;28;19919;-79
2022/11/03 13:18:21;;;;;;;;;;;14.50;99.90;;;;;;5067759;28;19948;-78
2022/11/03 13:20:47;;;;;;;;;;;14.40;99.90;;;;;;5067655;28;19913;-78
2022/11/03 13:23:12;;;;;;;;;;;14.30;99.90;;;;;;5066797;28;19920;-78
2022/11/03 13:25:38;;;;;;;;;;;14.30;99.90;;;;;;5067797;28;20486;-78
2022/11/03 13:28:04;;;;;;;;;;;14.20;99.90;;;;;;5067687;28;19920;-79
2022/11/03 13:30:29;;;;;;;;;;;14.20;99.90;;;;;;5066253;28;20007;-78
2022/11/03 13:32:55;;;;;;;;;;;14.20;99.90;;;;;;5067562;28;19934;-79
2022/11/03 13:35:21;;;;;;;;;;;14.20;99.90;;;;;;5067174;28;19912;-78
2022/11/03 13:37:46;;;;;;;;;;;14.20;99.90;;;;;;5064209;28;20007;-79
2022/11/03 13:40:12;;;;;;;;;;;14.20;99.90;;;;;;5066220;28;19912;-78
2022/11/03 13:42:38;;;;;;;;;;;14.20;99.90;;;;;;5067732;28;19913;-79
2022/11/03 13:45:04;;;;;;;;;;;14.30;99.90;;;;;;5063007;28;19917;-79
2022/11/03 13:47:29;;;;;;;;;;;14.40;99.90;;;;;;5067431;28;19953;-78
2022/11/03 13:49:55;;;;;;;;;;;14.40;99.90;;;;;;5066770;28;19942;-79
2022/11/03 13:52:21;;;;;;;;;;;14.50;99.90;;;;;;5066682;28;19966;-79
2022/11/03 13:54:46;;;;;;;;;;;14.60;99.90;;;;;;5067194;28;19912;-78
2022/11/03 13:57:12;;;;;;;;;;;14.60;99.90;;;;;;5067224;28;20343;-79
2022/11/03 13:59:38;;;;;;;;;;;14.70;99.90;;;;;;5060717;28;20817;-78
2022/11/03 14:02:04;;;;;;;;;;;14.80;99.90;;;;;;5066728;28;19916;-79
2022/11/03 14:04:29;;;;;;;;;;;15.10;99.90;;;;;;5070134;28;19950;-78
2022/11/03 14:06:55;;;;;;;;;;;15.10;99.90;;;;;;5071010;28;19926;-79
2022/11/03 14:09:21;;;;;;;;;;;14.90;99.90;;;;;;5063293;28;19935;-80
2022/11/03 14:14:30;;;;;;;;;;;14.90;99.90;;;;;;5054278;28;19926;-80
2022/11/03 14:16:56;;;;;;;;;;;14.90;99.90;;;;;;5069645;28;19917;-81
2022/11/03 14:19:22;;;;;;;;;;;14.90;99.90;;;;;;5070047;28;19917;-81
2022/11/03 14:21:48;;;;;;;;;;;14.90;99.90;;;;;;5070351;28;19913;-81
2022/11/03 14:24:14;;;;;;;;;;;15.10;99.90;;;;;;5062060;28;19916;-80
2022/11/03 14:26:39;;;;;;;;;;;15.30;99.90;;;;;;5089583;28;19952;-80
2022/11/03 14:29:05;;;;;;;;;;;15.40;99.90;;;;;;5070458;28;19952;-80
2022/11/03 14:31:31;;;;;;;;;;;15.60;99.90;;;;;;5065347;28;19920;-80
2022/11/03 14:33:56;;;;;;;;;;;15.60;99.90;;;;;;5059113;28;19916;-81
2022/11/03 14:36:22;;;;;;;;;;;15.90;99.90;;;;;;5060139;28;19916;-79
2022/11/03 14:38:47;;;;;;;;;;;15.60;99.90;;;;;;5068032;28;20021;-80
2022/11/03 14:43:57;;;;;;;;;;;15.10;99.90;;;;;;5065840;28;20373;-81
2022/11/03 14:46:23;;;;;;;;;;;15.00;99.90;;;;;;5065529;28;19920;-81